sensor_id;sensor_type;location;lat;lon;timestamp;P1;durP1;ratioP1;P2;durP2;ratioP2
20527;SDS011;23612;50.894;10.700;2023-05-29T00:00:46;10.50;;;6.72;;
20527;SDS011;23612;50.894;10.700;2023-05-29T00:03:12;10.73;;;7.22;;
20527;SDS011;23612;50.894;10.700;2023-05-29T00:05:37;12.45;;;6.80;;
20527;SDS011;23612;50.894;10.700;2023-05-29T00:08:03;9.73;;;6.35;;
20527;SDS011;23612;50.894;10.700;2023-05-29T00:10:29;11.10;;;6.80;;
20527;SDS011;23612;50.894;10.700;2023-05-29T00:12:56;10.35;;;6.07;;
20527;SDS011;23612;50.894;10.700;2023-05-29T00:15:22;13.65;;;6.40;;
20527;SDS011;23612;50.894;10.700;2023-05-29T00:17:48;11.13;;;6.57;;
20527;SDS011;23612;50.894;10.700;2023-05-29T00:20:14;10.70;;;6.88;;
20527;SDS011;23612;50.894;10.700;2023-05-29T00:22:39;15.85;;;7.35;;
20527;SDS011;23612;50.894;10.700;2023-05-29T00:25:05;9.90;;;6.82;;
20527;SDS011;23612;50.894;10.700;2023-05-29T00:27:32;14.65;;;7.47;;
20527;SDS011;23612;50.894;10.700;2023-05-29T00:29:58;9.23;;;7.00;;
20527;SDS011;23612;50.894;10.700;2023-05-29T00:32:24;14.55;;;6.63;;
20527;SDS011;23612;50.894;10.700;2023-05-29T00:34:50;10.38;;;5.90;;
20527;SDS011;23612;50.894;10.700;2023-05-29T00:37:16;12.02;;;6.50;;
20527;SDS011;23612;50.894;10.700;2023-05-29T00:39:42;13.93;;;7.20;;
20527;SDS011;23612;50.894;10.700;2023-05-29T00:42:07;14.20;;;6.63;;
20527;SDS011;23612;50.894;10.700;2023-05-29T00:44:33;9.90;;;6.03;;
20527;SDS011;23612;50.894;10.700;2023-05-29T00:46:58;11.75;;;6.28;;
20527;SDS011;23612;50.894;10.700;2023-05-29T00:49:24;10.68;;;6.18;;
20527;SDS011;23612;50.894;10.700;2023-05-29T00:51:51;9.25;;;5.70;;
20527;SDS011;23612;50.894;10.700;2023-05-29T00:54:23;11.52;;;5.60;;
20527;SDS011;23612;50.894;10.700;2023-05-29T00:56:54;11.80;;;6.20;;
20527;SDS011;23612;50.894;10.700;2023-05-29T00:59:22;10.15;;;6.35;;
20527;SDS011;23612;50.894;10.700;2023-05-29T01:01:51;11.40;;;5.50;;
20527;SDS011;23612;50.894;10.700;2023-05-29T01:04:17;10.48;;;5.70;;
20527;SDS011;23612;50.894;10.700;2023-05-29T01:06:42;10.23;;;5.63;;
20527;SDS011;23612;50.894;10.700;2023-05-29T01:09:09;9.13;;;5.55;;
20527;SDS011;23612;50.894;10.700;2023-05-29T01:11:45;11.23;;;5.85;;
20527;SDS011;23612;50.894;10.700;2023-05-29T01:17:17;13.20;;;5.80;;
20527;SDS011;23612;50.894;10.700;2023-05-29T01:22:35;12.95;;;5.63;;
20527;SDS011;23612;50.894;10.700;2023-05-29T01:25:36;12.52;;;5.78;;
20527;SDS011;23612;50.894;10.700;2023-05-29T01:28:07;10.80;;;5.72;;
20527;SDS011;23612;50.894;10.700;2023-05-29T01:30:36;12.07;;;5.53;;
20527;SDS011;23612;50.894;10.700;2023-05-29T01:33:02;12.85;;;5.38;;
20527;SDS011;23612;50.894;10.700;2023-05-29T01:35:29;9.27;;;5.47;;
20527;SDS011;23612;50.894;10.700;2023-05-29T01:37:54;8.18;;;5.72;;
20527;SDS011;23612;50.894;10.700;2023-05-29T01:40:20;7.72;;;5.47;;
20527;SDS011;23612;50.894;10.700;2023-05-29T01:42:46;9.35;;;5.38;;
20527;SDS011;23612;50.894;10.700;2023-05-29T01:45:11;8.77;;;5.90;;
20527;SDS011;23612;50.894;10.700;2023-05-29T01:47:37;10.65;;;5.72;;
20527;SDS011;23612;50.894;10.700;2023-05-29T01:50:03;9.32;;;5.30;;
20527;SDS011;23612;50.894;10.700;2023-05-29T01:52:29;7.03;;;5.22;;
20527;SDS011;23612;50.894;10.700;2023-05-29T01:54:55;9.45;;;5.53;;
20527;SDS011;23612;50.894;10.700;2023-05-29T01:57:21;8.45;;;5.22;;
20527;SDS011;23612;50.894;10.700;2023-05-29T01:59:46;9.10;;;5.63;;
20527;SDS011;23612;50.894;10.700;2023-05-29T02:02:14;10.68;;;5.95;;
20527;SDS011;23612;50.894;10.700;2023-05-29T02:04:39;9.20;;;5.68;;
20527;SDS011;23612;50.894;10.700;2023-05-29T02:07:04;14.63;;;5.93;;
20527;SDS011;23612;50.894;10.700;2023-05-29T02:09:31;11.52;;;5.47;;
20527;SDS011;23612;50.894;10.700;2023-05-29T02:11:59;10.80;;;5.25;;
20527;SDS011;23612;50.894;10.700;2023-05-29T02:14:25;8.10;;;5.00;;
20527;SDS011;23612;50.894;10.700;2023-05-29T02:16:51;11.07;;;5.05;;
20527;SDS011;23612;50.894;10.700;2023-05-29T02:19:17;11.15;;;6.20;;
20527;SDS011;23612;50.894;10.700;2023-05-29T02:21:43;9.07;;;4.95;;
20527;SDS011;23612;50.894;10.700;2023-05-29T02:24:09;10.50;;;5.60;;
20527;SDS011;23612;50.894;10.700;2023-05-29T02:26:34;8.60;;;5.43;;
20527;SDS011;23612;50.894;10.700;2023-05-29T02:29:03;9.65;;;5.40;;
20527;SDS011;23612;50.894;10.700;2023-05-29T02:31:30;9.95;;;5.60;;
20527;SDS011;23612;50.894;10.700;2023-05-29T02:33:56;6.38;;;5.07;;
20527;SDS011;23612;50.894;10.700;2023-05-29T02:36:21;9.07;;;6.00;;
20527;SDS011;23612;50.894;10.700;2023-05-29T02:38:47;9.15;;;5.75;;
20527;SDS011;23612;50.894;10.700;2023-05-29T02:41:12;13.02;;;5.55;;
20527;SDS011;23612;50.894;10.700;2023-05-29T02:43:38;7.45;;;5.28;;
20527;SDS011;23612;50.894;10.700;2023-05-29T02:46:03;10.77;;;5.07;;
20527;SDS011;23612;50.894;10.700;2023-05-29T02:48:29;8.02;;;5.18;;
20527;SDS011;23612;50.894;10.700;2023-05-29T02:50:55;8.70;;;4.90;;
20527;SDS011;23612;50.894;10.700;2023-05-29T02:53:20;9.00;;;5.68;;
20527;SDS011;23612;50.894;10.700;2023-05-29T02:55:46;12.13;;;5.43;;
20527;SDS011;23612;50.894;10.700;2023-05-29T02:58:11;8.35;;;5.35;;
20527;SDS011;23612;50.894;10.700;2023-05-29T03:00:37;9.45;;;5.60;;
20527;SDS011;23612;50.894;10.700;2023-05-29T03:03:03;10.70;;;5.28;;
20527;SDS011;23612;50.894;10.700;2023-05-29T03:05:29;11.05;;;6.15;;
20527;SDS011;23612;50.894;10.700;2023-05-29T03:07:55;9.38;;;5.03;;
20527;SDS011;23612;50.894;10.700;2023-05-29T03:10:20;9.88;;;5.10;;
20527;SDS011;23612;50.894;10.700;2023-05-29T03:12:47;9.48;;;5.00;;
20527;SDS011;23612;50.894;10.700;2023-05-29T03:15:12;8.35;;;5.10;;
20527;SDS011;23612;50.894;10.700;2023-05-29T03:17:37;8.30;;;5.03;;
20527;SDS011;23612;50.894;10.700;2023-05-29T03:20:03;10.40;;;5.30;;
20527;SDS011;23612;50.894;10.700;2023-05-29T03:22:35;9.07;;;5.70;;
20527;SDS011;23612;50.894;10.700;2023-05-29T03:25:02;9.18;;;5.82;;
20527;SDS011;23612;50.894;10.700;2023-05-29T03:27:28;10.32;;;5.38;;
20527;SDS011;23612;50.894;10.700;2023-05-29T03:29:54;9.63;;;5.47;;
20527;SDS011;23612;50.894;10.700;2023-05-29T03:32:20;9.02;;;5.70;;
20527;SDS011;23612;50.894;10.700;2023-05-29T03:34:45;10.25;;;5.28;;
20527;SDS011;23612;50.894;10.700;2023-05-29T03:37:12;9.15;;;5.15;;
20527;SDS011;23612;50.894;10.700;2023-05-29T03:39:38;7.35;;;4.97;;
20527;SDS011;23612;50.894;10.700;2023-05-29T03:42:03;7.70;;;5.38;;
20527;SDS011;23612;50.894;10.700;2023-05-29T03:44:29;10.02;;;5.32;;
20527;SDS011;23612;50.894;10.700;2023-05-29T03:46:55;11.30;;;5.00;;
20527;SDS011;23612;50.894;10.700;2023-05-29T03:49:20;12.43;;;5.47;;
20527;SDS011;23612;50.894;10.700;2023-05-29T03:51:46;10.00;;;5.45;;
20527;SDS011;23612;50.894;10.700;2023-05-29T03:54:11;8.18;;;5.07;;
20527;SDS011;23612;50.894;10.700;2023-05-29T03:56:37;9.23;;;5.53;;
20527;SDS011;23612;50.894;10.700;2023-05-29T03:59:02;8.50;;;5.22;;
20527;SDS011;23612;50.894;10.700;2023-05-29T04:01:28;9.82;;;4.95;;
20527;SDS011;23612;50.894;10.700;2023-05-29T04:03:53;9.85;;;5.10;;
20527;SDS011;23612;50.894;10.700;2023-05-29T04:06:19;7.47;;;4.88;;
20527;SDS011;23612;50.894;10.700;2023-05-29T04:08:45;7.22;;;5.13;;
20527;SDS011;23612;50.894;10.700;2023-05-29T04:11:10;9.70;;;4.80;;
20527;SDS011;23612;50.894;10.700;2023-05-29T04:13:37;7.05;;;4.82;;
20527;SDS011;23612;50.894;10.700;2023-05-29T04:16:02;11.38;;;5.50;;
20527;SDS011;23612;50.894;10.700;2023-05-29T04:18:28;9.13;;;5.38;;
20527;SDS011;23612;50.894;10.700;2023-05-29T04:20:54;10.38;;;5.35;;
20527;SDS011;23612;50.894;10.700;2023-05-29T04:23:19;8.80;;;5.13;;
20527;SDS011;23612;50.894;10.700;2023-05-29T04:25:45;9.80;;;5.50;;
20527;SDS011;23612;50.894;10.700;2023-05-29T04:28:11;11.98;;;5.72;;
20527;SDS011;23612;50.894;10.700;2023-05-29T04:30:36;13.27;;;6.03;;
20527;SDS011;23612;50.894;10.700;2023-05-29T04:33:04;10.55;;;5.53;;
20527;SDS011;23612;50.894;10.700;2023-05-29T04:35:29;8.43;;;5.75;;
20527;SDS011;23612;50.894;10.700;2023-05-29T04:37:55;10.57;;;6.13;;
20527;SDS011;23612;50.894;10.700;2023-05-29T04:40:21;10.82;;;5.88;;
20527;SDS011;23612;50.894;10.700;2023-05-29T04:42:47;11.23;;;6.15;;
20527;SDS011;23612;50.894;10.700;2023-05-29T04:45:12;9.75;;;5.78;;
20527;SDS011;23612;50.894;10.700;2023-05-29T04:47:38;8.60;;;5.07;;
20527;SDS011;23612;50.894;10.700;2023-05-29T04:50:11;9.63;;;5.28;;
20527;SDS011;23612;50.894;10.700;2023-05-29T04:52:37;9.45;;;5.80;;
20527;SDS011;23612;50.894;10.700;2023-05-29T04:55:03;9.07;;;5.57;;
20527;SDS011;23612;50.894;10.700;2023-05-29T04:57:29;21.50;;;7.25;;
20527;SDS011;23612;50.894;10.700;2023-05-29T04:59:55;8.65;;;5.13;;
20527;SDS011;23612;50.894;10.700;2023-05-29T05:02:21;10.38;;;5.43;;
20527;SDS011;23612;50.894;10.700;2023-05-29T05:04:46;8.88;;;5.35;;
20527;SDS011;23612;50.894;10.700;2023-05-29T05:07:12;6.95;;;5.15;;
20527;SDS011;23612;50.894;10.700;2023-05-29T05:09:38;10.45;;;5.55;;
20527;SDS011;23612;50.894;10.700;2023-05-29T05:12:03;9.32;;;5.57;;
20527;SDS011;23612;50.894;10.700;2023-05-29T05:14:29;7.47;;;5.10;;
20527;SDS011;23612;50.894;10.700;2023-05-29T05:16:54;9.45;;;5.30;;
20527;SDS011;23612;50.894;10.700;2023-05-29T05:19:20;9.45;;;5.60;;
20527;SDS011;23612;50.894;10.700;2023-05-29T05:21:45;11.85;;;5.18;;
20527;SDS011;23612;50.894;10.700;2023-05-29T05:24:11;8.57;;;5.28;;
20527;SDS011;23612;50.894;10.700;2023-05-29T05:26:36;10.40;;;4.85;;
20527;SDS011;23612;50.894;10.700;2023-05-29T05:29:02;7.88;;;4.78;;
20527;SDS011;23612;50.894;10.700;2023-05-29T05:31:27;9.10;;;5.47;;
20527;SDS011;23612;50.894;10.700;2023-05-29T05:33:53;12.25;;;5.45;;
20527;SDS011;23612;50.894;10.700;2023-05-29T05:36:18;6.85;;;4.70;;
20527;SDS011;23612;50.894;10.700;2023-05-29T05:38:44;9.57;;;5.07;;
20527;SDS011;23612;50.894;10.700;2023-05-29T05:41:10;9.63;;;4.57;;
20527;SDS011;23612;50.894;10.700;2023-05-29T05:43:36;7.78;;;4.90;;
20527;SDS011;23612;50.894;10.700;2023-05-29T05:46:02;7.85;;;4.50;;
20527;SDS011;23612;50.894;10.700;2023-05-29T05:48:27;9.57;;;4.60;;
20527;SDS011;23612;50.894;10.700;2023-05-29T05:50:52;8.93;;;4.45;;
20527;SDS011;23612;50.894;10.700;2023-05-29T05:53:18;7.18;;;4.47;;
20527;SDS011;23612;50.894;10.700;2023-05-29T05:55:43;7.63;;;4.63;;
20527;SDS011;23612;50.894;10.700;2023-05-29T05:58:09;10.55;;;5.50;;
20527;SDS011;23612;50.894;10.700;2023-05-29T06:00:35;8.10;;;4.95;;
20527;SDS011;23612;50.894;10.700;2023-05-29T06:03:01;10.63;;;4.82;;
20527;SDS011;23612;50.894;10.700;2023-05-29T06:05:28;9.18;;;4.45;;
20527;SDS011;23612;50.894;10.700;2023-05-29T06:07:54;10.80;;;5.93;;
20527;SDS011;23612;50.894;10.700;2023-05-29T06:10:19;16.58;;;6.00;;
20527;SDS011;23612;50.894;10.700;2023-05-29T06:12:45;7.07;;;4.55;;
20527;SDS011;23612;50.894;10.700;2023-05-29T06:15:10;10.18;;;5.10;;
20527;SDS011;23612;50.894;10.700;2023-05-29T06:17:36;7.38;;;4.72;;
20527;SDS011;23612;50.894;10.700;2023-05-29T06:20:01;10.48;;;4.88;;
20527;SDS011;23612;50.894;10.700;2023-05-29T06:22:30;7.32;;;4.60;;
20527;SDS011;23612;50.894;10.700;2023-05-29T06:24:55;8.48;;;4.57;;
20527;SDS011;23612;50.894;10.700;2023-05-29T06:27:21;8.95;;;4.85;;
20527;SDS011;23612;50.894;10.700;2023-05-29T06:29:50;9.45;;;4.95;;
20527;SDS011;23612;50.894;10.700;2023-05-29T06:32:16;6.78;;;4.30;;
20527;SDS011;23612;50.894;10.700;2023-05-29T06:34:41;9.63;;;4.68;;
20527;SDS011;23612;50.894;10.700;2023-05-29T06:37:07;9.48;;;4.78;;
20527;SDS011;23612;50.894;10.700;2023-05-29T06:39:34;11.23;;;5.03;;
20527;SDS011;23612;50.894;10.700;2023-05-29T06:41:59;9.73;;;4.25;;
20527;SDS011;23612;50.894;10.700;2023-05-29T06:44:26;7.97;;;4.30;;
20527;SDS011;23612;50.894;10.700;2023-05-29T06:46:52;8.18;;;4.30;;
20527;SDS011;23612;50.894;10.700;2023-05-29T06:49:17;6.40;;;4.45;;
20527;SDS011;23612;50.894;10.700;2023-05-29T06:51:43;8.77;;;4.32;;
20527;SDS011;23612;50.894;10.700;2023-05-29T06:54:09;7.65;;;4.90;;
20527;SDS011;23612;50.894;10.700;2023-05-29T06:56:35;7.93;;;4.47;;
20527;SDS011;23612;50.894;10.700;2023-05-29T06:59:00;7.05;;;4.65;;
20527;SDS011;23612;50.894;10.700;2023-05-29T07:01:26;7.95;;;4.50;;
20527;SDS011;23612;50.894;10.700;2023-05-29T07:03:51;7.80;;;4.53;;
20527;SDS011;23612;50.894;10.700;2023-05-29T07:06:18;7.28;;;4.25;;
20527;SDS011;23612;50.894;10.700;2023-05-29T07:08:43;7.30;;;4.43;;
20527;SDS011;23612;50.894;10.700;2023-05-29T07:11:08;7.40;;;4.47;;
20527;SDS011;23612;50.894;10.700;2023-05-29T07:13:34;8.25;;;4.80;;
20527;SDS011;23612;50.894;10.700;2023-05-29T07:16:00;6.90;;;4.40;;
20527;SDS011;23612;50.894;10.700;2023-05-29T07:18:26;8.18;;;4.40;;
20527;SDS011;23612;50.894;10.700;2023-05-29T07:20:51;7.45;;;4.47;;
20527;SDS011;23612;50.894;10.700;2023-05-29T07:23:17;7.85;;;4.50;;
20527;SDS011;23612;50.894;10.700;2023-05-29T07:25:42;7.95;;;4.15;;
20527;SDS011;23612;50.894;10.700;2023-05-29T07:28:08;7.20;;;3.95;;
20527;SDS011;23612;50.894;10.700;2023-05-29T07:30:33;8.93;;;4.90;;
20527;SDS011;23612;50.894;10.700;2023-05-29T07:32:59;7.07;;;4.60;;
20527;SDS011;23612;50.894;10.700;2023-05-29T07:35:24;7.95;;;4.78;;
20527;SDS011;23612;50.894;10.700;2023-05-29T07:37:50;7.05;;;4.70;;
20527;SDS011;23612;50.894;10.700;2023-05-29T07:40:17;40.25;;;6.28;;
20527;SDS011;23612;50.894;10.700;2023-05-29T07:42:42;6.95;;;4.32;;
20527;SDS011;23612;50.894;10.700;2023-05-29T07:45:08;10.23;;;4.70;;
20527;SDS011;23612;50.894;10.700;2023-05-29T07:47:34;7.78;;;4.68;;
20527;SDS011;23612;50.894;10.700;2023-05-29T07:49:59;8.80;;;4.47;;
20527;SDS011;23612;50.894;10.700;2023-05-29T07:52:25;6.18;;;3.90;;
20527;SDS011;23612;50.894;10.700;2023-05-29T07:54:50;8.10;;;4.53;;
20527;SDS011;23612;50.894;10.700;2023-05-29T07:57:17;7.40;;;4.32;;
20527;SDS011;23612;50.894;10.700;2023-05-29T07:59:42;10.27;;;4.70;;
20527;SDS011;23612;50.894;10.700;2023-05-29T08:02:08;7.50;;;4.57;;
20527;SDS011;23612;50.894;10.700;2023-05-29T08:04:34;8.63;;;4.07;;
20527;SDS011;23612;50.894;10.700;2023-05-29T08:07:02;6.65;;;4.22;;
20527;SDS011;23612;50.894;10.700;2023-05-29T08:09:31;7.55;;;4.25;;
20527;SDS011;23612;50.894;10.700;2023-05-29T08:11:56;6.88;;;4.45;;
20527;SDS011;23612;50.894;10.700;2023-05-29T08:14:22;6.72;;;4.28;;
20527;SDS011;23612;50.894;10.700;2023-05-29T08:16:47;7.78;;;4.43;;
20527;SDS011;23612;50.894;10.700;2023-05-29T08:19:13;10.43;;;4.45;;
20527;SDS011;23612;50.894;10.700;2023-05-29T08:21:38;8.10;;;4.70;;
20527;SDS011;23612;50.894;10.700;2023-05-29T08:24:04;11.38;;;4.72;;
20527;SDS011;23612;50.894;10.700;2023-05-29T08:26:30;9.73;;;3.92;;
20527;SDS011;23612;50.894;10.700;2023-05-29T08:28:56;6.60;;;4.32;;
20527;SDS011;23612;50.894;10.700;2023-05-29T08:31:22;5.95;;;3.95;;
20527;SDS011;23612;50.894;10.700;2023-05-29T08:33:50;19.85;;;4.97;;
20527;SDS011;23612;50.894;10.700;2023-05-29T08:36:16;11.75;;;3.85;;
20527;SDS011;23612;50.894;10.700;2023-05-29T08:38:42;6.47;;;4.40;;
20527;SDS011;23612;50.894;10.700;2023-05-29T08:41:08;6.50;;;3.65;;
20527;SDS011;23612;50.894;10.700;2023-05-29T08:43:39;7.07;;;4.28;;
20527;SDS011;23612;50.894;10.700;2023-05-29T08:46:06;43.30;;;5.28;;
20527;SDS011;23612;50.894;10.700;2023-05-29T08:48:32;7.43;;;3.53;;
20527;SDS011;23612;50.894;10.700;2023-05-29T08:51:03;7.85;;;4.85;;
20527;SDS011;23612;50.894;10.700;2023-05-29T08:53:30;6.68;;;3.85;;
20527;SDS011;23612;50.894;10.700;2023-05-29T08:55:57;7.05;;;4.15;;
20527;SDS011;23612;50.894;10.700;2023-05-29T08:58:23;8.00;;;4.18;;
20527;SDS011;23612;50.894;10.700;2023-05-29T09:00:49;8.68;;;5.03;;
20527;SDS011;23612;50.894;10.700;2023-05-29T09:03:16;8.70;;;4.60;;
20527;SDS011;23612;50.894;10.700;2023-05-29T09:05:42;10.25;;;3.72;;
20527;SDS011;23612;50.894;10.700;2023-05-29T09:08:09;4.90;;;4.05;;
20527;SDS011;23612;50.894;10.700;2023-05-29T09:10:37;4.63;;;3.30;;
20527;SDS011;23612;50.894;10.700;2023-05-29T09:13:06;3.80;;;3.40;;
20527;SDS011;23612;50.894;10.700;2023-05-29T09:15:34;5.47;;;3.80;;
20527;SDS011;23612;50.894;10.700;2023-05-29T09:17:59;8.85;;;4.10;;
20527;SDS011;23612;50.894;10.700;2023-05-29T09:20:25;9.15;;;3.75;;
20527;SDS011;23612;50.894;10.700;2023-05-29T09:22:59;5.82;;;4.00;;
20527;SDS011;23612;50.894;10.700;2023-05-29T09:25:27;5.22;;;3.60;;
20527;SDS011;23612;50.894;10.700;2023-05-29T09:27:55;10.10;;;3.70;;
20527;SDS011;23612;50.894;10.700;2023-05-29T09:30:40;7.45;;;3.90;;
20527;SDS011;23612;50.894;10.700;2023-05-29T09:33:07;9.55;;;3.53;;
20527;SDS011;23612;50.894;10.700;2023-05-29T09:35:35;6.65;;;3.92;;
20527;SDS011;23612;50.894;10.700;2023-05-29T09:38:01;10.20;;;3.60;;
20527;SDS011;23612;50.894;10.700;2023-05-29T09:40:35;8.30;;;3.63;;
20527;SDS011;23612;50.894;10.700;2023-05-29T09:43:14;8.25;;;3.38;;
20527;SDS011;23612;50.894;10.700;2023-05-29T09:45:46;5.05;;;3.40;;
20527;SDS011;23612;50.894;10.700;2023-05-29T09:48:13;6.25;;;3.53;;
20527;SDS011;23612;50.894;10.700;2023-05-29T09:50:40;5.20;;;3.70;;
20527;SDS011;23612;50.894;10.700;2023-05-29T09:53:19;6.45;;;4.00;;
20527;SDS011;23612;50.894;10.700;2023-05-29T09:55:47;9.85;;;4.05;;
20527;SDS011;23612;50.894;10.700;2023-05-29T09:58:13;5.75;;;3.83;;
20527;SDS011;23612;50.894;10.700;2023-05-29T10:00:40;7.03;;;3.58;;
20527;SDS011;23612;50.894;10.700;2023-05-29T10:03:06;7.45;;;3.58;;
20527;SDS011;23612;50.894;10.700;2023-05-29T10:05:32;5.22;;;3.83;;
20527;SDS011;23612;50.894;10.700;2023-05-29T10:07:57;6.03;;;3.95;;
20527;SDS011;23612;50.894;10.700;2023-05-29T10:10:27;11.43;;;3.85;;
20527;SDS011;23612;50.894;10.700;2023-05-29T10:12:54;6.05;;;3.65;;
20527;SDS011;23612;50.894;10.700;2023-05-29T10:15:22;5.25;;;3.75;;
20527;SDS011;23612;50.894;10.700;2023-05-29T10:18:02;5.47;;;3.38;;
20527;SDS011;23612;50.894;10.700;2023-05-29T10:20:29;6.82;;;3.55;;
20527;SDS011;23612;50.894;10.700;2023-05-29T10:22:59;5.13;;;3.50;;
20527;SDS011;23612;50.894;10.700;2023-05-29T10:25:27;5.70;;;3.78;;
20527;SDS011;23612;50.894;10.700;2023-05-29T10:27:54;9.63;;;3.90;;
20527;SDS011;23612;50.894;10.700;2023-05-29T10:30:26;5.22;;;3.60;;
20527;SDS011;23612;50.894;10.700;2023-05-29T10:33:20;8.73;;;3.30;;
20527;SDS011;23612;50.894;10.700;2023-05-29T10:36:18;8.95;;;3.58;;
20527;SDS011;23612;50.894;10.700;2023-05-29T10:38:47;8.65;;;4.15;;
20527;SDS011;23612;50.894;10.700;2023-05-29T10:43:58;9.35;;;4.05;;
20527;SDS011;23612;50.894;10.700;2023-05-29T10:49:16;4.13;;;3.20;;
20527;SDS011;23612;50.894;10.700;2023-05-29T10:51:42;5.18;;;3.58;;
20527;SDS011;23612;50.894;10.700;2023-05-29T10:54:08;6.13;;;3.45;;
20527;SDS011;23612;50.894;10.700;2023-05-29T10:56:35;8.25;;;3.80;;
20527;SDS011;23612;50.894;10.700;2023-05-29T10:59:00;5.63;;;3.30;;
20527;SDS011;23612;50.894;10.700;2023-05-29T11:01:27;7.75;;;3.20;;
20527;SDS011;23612;50.894;10.700;2023-05-29T11:03:54;7.15;;;3.72;;
20527;SDS011;23612;50.894;10.700;2023-05-29T11:06:41;5.82;;;3.47;;
20527;SDS011;23612;50.894;10.700;2023-05-29T11:17:52;6.88;;;3.47;;
20527;SDS011;23612;50.894;10.700;2023-05-29T11:23:15;10.18;;;3.78;;
20527;SDS011;23612;50.894;10.700;2023-05-29T11:25:43;3.92;;;3.40;;
20527;SDS011;23612;50.894;10.700;2023-05-29T11:28:11;5.15;;;3.40;;
20527;SDS011;23612;50.894;10.700;2023-05-29T11:30:41;24.88;;;4.28;;
20527;SDS011;23612;50.894;10.700;2023-05-29T11:33:14;6.57;;;3.33;;
20527;SDS011;23612;50.894;10.700;2023-05-29T11:35:49;8.70;;;3.53;;
20527;SDS011;23612;50.894;10.700;2023-05-29T11:38:25;5.38;;;3.50;;
20527;SDS011;23612;50.894;10.700;2023-05-29T11:40:52;3.60;;;3.30;;
20527;SDS011;23612;50.894;10.700;2023-05-29T11:43:19;4.07;;;2.80;;
20527;SDS011;23612;50.894;10.700;2023-05-29T11:45:45;6.28;;;3.60;;
20527;SDS011;23612;50.894;10.700;2023-05-29T11:48:10;4.40;;;3.08;;
20527;SDS011;23612;50.894;10.700;2023-05-29T11:50:36;3.90;;;2.83;;
20527;SDS011;23612;50.894;10.700;2023-05-29T11:53:02;5.38;;;3.20;;
20527;SDS011;23612;50.894;10.700;2023-05-29T11:55:27;7.95;;;3.22;;
20527;SDS011;23612;50.894;10.700;2023-05-29T11:57:57;4.55;;;3.20;;
20527;SDS011;23612;50.894;10.700;2023-05-29T12:00:24;7.53;;;3.42;;
20527;SDS011;23612;50.894;10.700;2023-05-29T12:02:50;4.38;;;3.28;;
20527;SDS011;23612;50.894;10.700;2023-05-29T12:05:16;8.00;;;3.42;;
20527;SDS011;23612;50.894;10.700;2023-05-29T12:07:46;4.80;;;3.38;;
20527;SDS011;23612;50.894;10.700;2023-05-29T12:10:21;5.18;;;3.40;;
20527;SDS011;23612;50.894;10.700;2023-05-29T12:12:48;6.15;;;3.75;;
20527;SDS011;23612;50.894;10.700;2023-05-29T12:15:17;3.95;;;3.13;;
20527;SDS011;23612;50.894;10.700;2023-05-29T12:17:44;7.85;;;3.10;;
20527;SDS011;23612;50.894;10.700;2023-05-29T12:20:10;4.95;;;3.20;;
20527;SDS011;23612;50.894;10.700;2023-05-29T12:22:38;6.53;;;3.70;;
20527;SDS011;23612;50.894;10.700;2023-05-29T12:27:38;6.25;;;3.58;;
20527;SDS011;23612;50.894;10.700;2023-05-29T12:30:11;6.32;;;3.30;;
20527;SDS011;23612;50.894;10.700;2023-05-29T12:32:40;8.02;;;3.65;;
20527;SDS011;23612;50.894;10.700;2023-05-29T12:35:13;8.85;;;3.50;;
20527;SDS011;23612;50.894;10.700;2023-05-29T12:37:49;4.78;;;3.22;;
20527;SDS011;23612;50.894;10.700;2023-05-29T12:40:27;6.20;;;3.50;;
20527;SDS011;23612;50.894;10.700;2023-05-29T12:45:30;5.88;;;3.42;;
20527;SDS011;23612;50.894;10.700;2023-05-29T12:48:00;6.45;;;3.55;;
20527;SDS011;23612;50.894;10.700;2023-05-29T12:50:31;6.97;;;3.08;;
20527;SDS011;23612;50.894;10.700;2023-05-29T12:52:59;4.93;;;3.10;;
20527;SDS011;23612;50.894;10.700;2023-05-29T12:55:30;7.28;;;3.03;;
20527;SDS011;23612;50.894;10.700;2023-05-29T12:58:13;6.43;;;3.03;;
20527;SDS011;23612;50.894;10.700;2023-05-29T13:00:39;4.55;;;3.10;;
20527;SDS011;23612;50.894;10.700;2023-05-29T13:03:06;5.78;;;3.25;;
20527;SDS011;23612;50.894;10.700;2023-05-29T13:05:33;42.67;;;5.00;;
20527;SDS011;23612;50.894;10.700;2023-05-29T13:07:58;5.95;;;3.35;;
20527;SDS011;23612;50.894;10.700;2023-05-29T13:10:25;7.75;;;3.25;;
20527;SDS011;23612;50.894;10.700;2023-05-29T13:12:52;7.68;;;3.15;;
20527;SDS011;23612;50.894;10.700;2023-05-29T13:15:20;6.10;;;3.40;;
20527;SDS011;23612;50.894;10.700;2023-05-29T13:17:46;6.88;;;3.55;;
20527;SDS011;23612;50.894;10.700;2023-05-29T13:20:12;5.47;;;3.40;;
20527;SDS011;23612;50.894;10.700;2023-05-29T13:22:38;10.02;;;3.72;;
20527;SDS011;23612;50.894;10.700;2023-05-29T13:25:05;29.42;;;4.30;;
20527;SDS011;23612;50.894;10.700;2023-05-29T13:27:32;12.10;;;3.70;;
20527;SDS011;23612;50.894;10.700;2023-05-29T13:29:59;5.22;;;3.10;;
20527;SDS011;23612;50.894;10.700;2023-05-29T13:32:25;17.75;;;3.63;;
20527;SDS011;23612;50.894;10.700;2023-05-29T13:34:50;5.93;;;3.38;;
20527;SDS011;23612;50.894;10.700;2023-05-29T13:37:16;4.35;;;3.00;;
20527;SDS011;23612;50.894;10.700;2023-05-29T13:39:41;5.75;;;3.75;;
20527;SDS011;23612;50.894;10.700;2023-05-29T13:42:07;4.07;;;3.20;;
20527;SDS011;23612;50.894;10.700;2023-05-29T13:44:33;5.60;;;3.47;;
20527;SDS011;23612;50.894;10.700;2023-05-29T13:46:59;5.10;;;3.35;;
20527;SDS011;23612;50.894;10.700;2023-05-29T13:49:25;6.45;;;3.58;;
20527;SDS011;23612;50.894;10.700;2023-05-29T13:51:51;5.32;;;3.83;;
20527;SDS011;23612;50.894;10.700;2023-05-29T13:54:16;9.35;;;3.45;;
20527;SDS011;23612;50.894;10.700;2023-05-29T13:56:46;12.77;;;3.85;;
20527;SDS011;23612;50.894;10.700;2023-05-29T13:59:11;7.03;;;3.42;;
20527;SDS011;23612;50.894;10.700;2023-05-29T14:01:37;6.15;;;3.42;;
20527;SDS011;23612;50.894;10.700;2023-05-29T14:04:02;7.10;;;3.80;;
20527;SDS011;23612;50.894;10.700;2023-05-29T14:06:28;6.05;;;3.58;;
20527;SDS011;23612;50.894;10.700;2023-05-29T14:08:53;7.22;;;3.63;;
20527;SDS011;23612;50.894;10.700;2023-05-29T14:11:20;5.93;;;3.70;;
20527;SDS011;23612;50.894;10.700;2023-05-29T14:13:46;6.07;;;3.17;;
20527;SDS011;23612;50.894;10.700;2023-05-29T14:16:11;5.30;;;3.40;;
20527;SDS011;23612;50.894;10.700;2023-05-29T14:18:39;5.53;;;3.40;;
20527;SDS011;23612;50.894;10.700;2023-05-29T14:21:04;6.97;;;3.30;;
20527;SDS011;23612;50.894;10.700;2023-05-29T14:23:29;7.03;;;3.30;;
20527;SDS011;23612;50.894;10.700;2023-05-29T14:25:55;9.52;;;3.58;;
20527;SDS011;23612;50.894;10.700;2023-05-29T14:28:20;20.85;;;4.75;;
20527;SDS011;23612;50.894;10.700;2023-05-29T14:30:46;5.82;;;3.60;;
20527;SDS011;23612;50.894;10.700;2023-05-29T14:33:11;8.48;;;3.78;;
20527;SDS011;23612;50.894;10.700;2023-05-29T14:35:37;6.85;;;3.38;;
20527;SDS011;23612;50.894;10.700;2023-05-29T14:38:02;5.60;;;3.10;;
20527;SDS011;23612;50.894;10.700;2023-05-29T14:40:28;5.78;;;3.20;;
20527;SDS011;23612;50.894;10.700;2023-05-29T14:42:55;7.45;;;3.78;;
20527;SDS011;23612;50.894;10.700;2023-05-29T14:45:21;15.55;;;3.90;;
20527;SDS011;23612;50.894;10.700;2023-05-29T14:47:46;5.32;;;3.08;;
20527;SDS011;23612;50.894;10.700;2023-05-29T14:50:12;6.63;;;3.17;;
20527;SDS011;23612;50.894;10.700;2023-05-29T14:52:37;4.55;;;3.35;;
20527;SDS011;23612;50.894;10.700;2023-05-29T14:55:04;6.40;;;3.60;;
20527;SDS011;23612;50.894;10.700;2023-05-29T14:57:30;5.15;;;3.22;;